sensor_id;sensor_type;location;lat;lon;timestamp;pressure;altitude;pressure_sealevel;temperature;humidity
31062;BME280;17724;53.546;9.974;2023-03-13T00:02:00;100227.78;;;7.74;100.00
31062;BME280;17724;53.546;9.974;2023-03-13T00:06:00;100225.03;;;7.74;100.00
31062;BME280;17724;53.546;9.974;2023-03-13T00:10:01;100213.81;;;7.76;100.00
31062;BME280;17724;53.546;9.974;2023-03-13T00:14:02;100209.22;;;7.81;100.00
31062;BME280;17724;53.546;9.974;2023-03-13T00:18:03;100215.16;;;7.95;100.00
31062;BME280;17724;53.546;9.974;2023-03-13T00:22:04;100207.59;;;7.80;100.00
31062;BME280;17724;53.546;9.974;2023-03-13T00:26:10;100193.63;;;7.82;100.00
31062;BME280;17724;53.546;9.974;2023-03-13T00:30:11;100189.72;;;7.95;100.00
31062;BME280;17724;53.546;9.974;2023-03-13T00:34:11;100186.97;;;7.95;100.00
31062;BME280;17724;53.546;9.974;2023-03-13T00:38:12;100186.38;;;7.93;100.00
31062;BME280;17724;53.546;9.974;2023-03-13T00:42:13;100176.78;;;8.17;100.00
31062;BME280;17724;53.546;9.974;2023-03-13T00:46:15;100164.34;;;8.04;100.00
31062;BME280;17724;53.546;9.974;2023-03-13T00:50:16;100161.75;;;7.93;100.00
31062;BME280;17724;53.546;9.974;2023-03-13T00:54:17;100146.97;;;7.94;100.00
31062;BME280;17724;53.546;9.974;2023-03-13T00:58:18;100146.28;;;7.81;100.00
31062;BME280;17724;53.546;9.974;2023-03-13T01:02:19;100140.94;;;7.92;100.00
31062;BME280;17724;53.546;9.974;2023-03-13T01:06:22;100131.97;;;8.01;100.00
31062;BME280;17724;53.546;9.974;2023-03-13T01:10:23;100126.66;;;7.89;100.00
31062;BME280;17724;53.546;9.974;2023-03-13T01:14:24;100131.59;;;8.14;100.00
31062;BME280;17724;53.546;9.974;2023-03-13T01:18:27;100121.69;;;8.13;100.00
31062;BME280;17724;53.546;9.974;2023-03-13T01:22:27;100114.41;;;7.97;100.00
31062;BME280;17724;53.546;9.974;2023-03-13T01:26:28;100107.75;;;8.15;100.00
31062;BME280;17724;53.546;9.974;2023-03-13T01:30:30;100092.72;;;8.18;100.00
31062;BME280;17724;53.546;9.974;2023-03-13T01:34:31;100085.94;;;8.25;100.00
31062;BME280;17724;53.546;9.974;2023-03-13T01:38:31;100061.28;;;8.25;100.00
31062;BME280;17724;53.546;9.974;2023-03-13T01:42:48;100052.72;;;8.17;100.00
31062;BME280;17724;53.546;9.974;2023-03-13T01:46:49;100051.44;;;8.29;100.00
31062;BME280;17724;53.546;9.974;2023-03-13T01:50:58;100044.00;;;8.20;100.00
31062;BME280;17724;53.546;9.974;2023-03-13T01:55:06;100022.38;;;8.23;100.00
31062;BME280;17724;53.546;9.974;2023-03-13T01:59:13;100022.09;;;8.25;100.00
31062;BME280;17724;53.546;9.974;2023-03-13T02:03:19;100014.16;;;8.23;100.00
31062;BME280;17724;53.546;9.974;2023-03-13T02:07:31;100003.81;;;8.30;100.00
31062;BME280;17724;53.546;9.974;2023-03-13T02:15:41;99975.31;;;8.26;100.00
31062;BME280;17724;53.546;9.974;2023-03-13T02:19:45;99977.47;;;8.24;100.00
31062;BME280;17724;53.546;9.974;2023-03-13T02:24:12;99963.47;;;8.21;100.00
31062;BME280;17724;53.546;9.974;2023-03-13T02:28:21;99959.34;;;8.18;100.00
31062;BME280;17724;53.546;9.974;2023-03-13T02:32:26;99951.63;;;8.10;100.00
31062;BME280;17724;53.546;9.974;2023-03-13T02:36:29;99954.63;;;8.08;100.00
31062;BME280;17724;53.546;9.974;2023-03-13T02:40:37;99917.38;;;8.07;100.00
31062;BME280;17724;53.546;9.974;2023-03-13T02:44:40;99922.88;;;8.12;100.00
31062;BME280;17724;53.546;9.974;2023-03-13T02:48:47;99920.13;;;8.12;100.00
31062;BME280;17724;53.546;9.974;2023-03-13T02:52:59;99910.00;;;8.13;100.00
31062;BME280;17724;53.546;9.974;2023-03-13T02:57:02;99888.00;;;7.98;100.00
31062;BME280;17724;53.546;9.974;2023-03-13T03:01:03;99893.31;;;8.14;100.00
31062;BME280;17724;53.546;9.974;2023-03-13T03:05:09;99879.34;;;8.11;100.00
31062;BME280;17724;53.546;9.974;2023-03-13T03:09:10;99874.91;;;8.05;100.00
31062;BME280;17724;53.546;9.974;2023-03-13T03:13:11;99862.28;;;7.99;100.00
31062;BME280;17724;53.546;9.974;2023-03-13T03:17:11;99865.88;;;8.04;100.00
31062;BME280;17724;53.546;9.974;2023-03-13T03:21:12;99848.63;;;8.09;100.00
31062;BME280;17724;53.546;9.974;2023-03-13T03:25:13;99851.13;;;8.10;100.00
31062;BME280;17724;53.546;9.974;2023-03-13T03:29:13;99839.59;;;8.08;100.00
31062;BME280;17724;53.546;9.974;2023-03-13T03:33:14;99821.50;;;8.02;100.00
31062;BME280;17724;53.546;9.974;2023-03-13T03:37:15;99818.22;;;8.05;100.00
31062;BME280;17724;53.546;9.974;2023-03-13T03:41:16;99805.59;;;7.99;100.00
31062;BME280;17724;53.546;9.974;2023-03-13T03:45:18;99811.91;;;8.00;100.00
31062;BME280;17724;53.546;9.974;2023-03-13T03:49:19;99790.59;;;8.12;100.00
31062;BME280;17724;53.546;9.974;2023-03-13T03:53:19;99796.91;;;8.18;100.00
31062;BME280;17724;53.546;9.974;2023-03-13T03:57:20;99787.81;;;8.02;100.00
31062;BME280;17724;53.546;9.974;2023-03-13T04:01:20;99776.53;;;7.93;100.00
31062;BME280;17724;53.546;9.974;2023-03-13T04:05:22;99758.72;;;7.85;100.00
31062;BME280;17724;53.546;9.974;2023-03-13T04:09:22;99752.41;;;7.85;100.00
31062;BME280;17724;53.546;9.974;2023-03-13T04:13:23;99746.44;;;7.93;100.00
31062;BME280;17724;53.546;9.974;2023-03-13T04:17:24;99735.47;;;7.88;100.00
31062;BME280;17724;53.546;9.974;2023-03-13T04:21:25;99717.09;;;7.83;100.00
31062;BME280;17724;53.546;9.974;2023-03-13T04:25:32;99710.59;;;7.95;100.00
31062;BME280;17724;53.546;9.974;2023-03-13T04:29:34;99700.47;;;7.95;100.00
31062;BME280;17724;53.546;9.974;2023-03-13T04:33:57;99691.97;;;8.02;100.00
31062;BME280;17724;53.546;9.974;2023-03-13T04:38:06;99674.66;;;7.81;100.00
31062;BME280;17724;53.546;9.974;2023-03-13T04:42:29;99653.88;;;7.80;100.00
31062;BME280;17724;53.546;9.974;2023-03-13T04:46:39;99642.34;;;7.73;100.00
31062;BME280;17724;53.546;9.974;2023-03-13T04:50:57;99625.66;;;7.74;100.00
31062;BME280;17724;53.546;9.974;2023-03-13T04:55:05;99616.31;;;7.65;100.00
31062;BME280;17724;53.546;9.974;2023-03-13T04:59:35;99610.03;;;7.64;100.00
31062;BME280;17724;53.546;9.974;2023-03-13T05:03:41;99586.50;;;7.69;100.00
31062;BME280;17724;53.546;9.974;2023-03-13T05:07:50;99573.63;;;7.69;100.00
31062;BME280;17724;53.546;9.974;2023-03-13T05:11:53;99549.00;;;7.59;100.00
31062;BME280;17724;53.546;9.974;2023-03-13T05:16:12;99535.31;;;7.59;100.00
31062;BME280;17724;53.546;9.974;2023-03-13T05:20:31;99527.06;;;7.54;100.00
31062;BME280;17724;53.546;9.974;2023-03-13T05:24:40;99510.69;;;7.59;100.00
31062;BME280;17724;53.546;9.974;2023-03-13T05:28:51;99501.38;;;7.60;100.00
31062;BME280;17724;53.546;9.974;2023-03-13T05:33:07;99498.66;;;7.55;100.00
31062;BME280;17724;53.546;9.974;2023-03-13T05:37:22;99506.28;;;7.58;100.00
31062;BME280;17724;53.546;9.974;2023-03-13T05:41:34;99490.44;;;7.65;100.00
31062;BME280;17724;53.546;9.974;2023-03-13T05:45:50;99470.75;;;7.63;100.00
31062;BME280;17724;53.546;9.974;2023-03-13T05:50:09;99469.09;;;7.62;100.00
31062;BME280;17724;53.546;9.974;2023-03-13T05:54:27;99444.22;;;7.69;100.00
31062;BME280;17724;53.546;9.974;2023-03-13T05:58:57;99443.97;;;7.70;100.00
31062;BME280;17724;53.546;9.974;2023-03-13T06:03:23;99443.66;;;7.82;100.00
31062;BME280;17724;53.546;9.974;2023-03-13T06:07:26;99438.75;;;7.84;100.00
31062;BME280;17724;53.546;9.974;2023-03-13T06:11:26;99420.69;;;7.83;100.00
31062;BME280;17724;53.546;9.974;2023-03-13T06:15:28;99431.34;;;7.84;100.00
31062;BME280;17724;53.546;9.974;2023-03-13T06:19:46;99417.13;;;7.93;100.00
31062;BME280;17724;53.546;9.974;2023-03-13T06:23:47;99408.34;;;8.01;100.00
31062;BME280;17724;53.546;9.974;2023-03-13T06:27:47;99405.88;;;8.09;100.00
31062;BME280;17724;53.546;9.974;2023-03-13T06:31:48;99406.44;;;8.11;100.00
31062;BME280;17724;53.546;9.974;2023-03-13T06:35:48;99381.22;;;8.25;100.00
31062;BME280;17724;53.546;9.974;2023-03-13T06:39:48;99372.16;;;8.29;100.00
31062;BME280;17724;53.546;9.974;2023-03-13T06:43:49;99375.44;;;8.42;100.00
31062;BME280;17724;53.546;9.974;2023-03-13T06:47:49;99362.25;;;8.49;100.00
31062;BME280;17724;53.546;9.974;2023-03-13T06:51:51;99345.53;;;8.55;100.00
31062;BME280;17724;53.546;9.974;2023-03-13T06:55:51;99332.63;;;8.61;100.00
31062;BME280;17724;53.546;9.974;2023-03-13T06:59:52;99334.81;;;8.64;100.00
31062;BME280;17724;53.546;9.974;2023-03-13T07:03:52;99333.94;;;8.74;100.00
31062;BME280;17724;53.546;9.974;2023-03-13T07:07:53;99332.28;;;8.78;100.00
31062;BME280;17724;53.546;9.974;2023-03-13T07:11:53;99324.28;;;8.86;100.00
31062;BME280;17724;53.546;9.974;2023-03-13T07:15:54;99320.13;;;8.89;100.00
31062;BME280;17724;53.546;9.974;2023-03-13T07:19:55;99302.06;;;8.88;100.00
31062;BME280;17724;53.546;9.974;2023-03-13T07:23:55;99300.63;;;8.96;100.00
31062;BME280;17724;53.546;9.974;2023-03-13T07:27:55;99288.81;;;9.00;100.00
31062;BME280;17724;53.546;9.974;2023-03-13T07:31:56;99293.44;;;9.05;100.00
31062;BME280;17724;53.546;9.974;2023-03-13T07:35:56;99288.16;;;9.19;100.00
31062;BME280;17724;53.546;9.974;2023-03-13T07:39:57;99279.88;;;9.24;100.00
31062;BME280;17724;53.546;9.974;2023-03-13T07:43:58;99273.47;;;9.33;100.00
31062;BME280;17724;53.546;9.974;2023-03-13T07:47:58;99273.09;;;9.45;100.00
31062;BME280;17724;53.546;9.974;2023-03-13T07:51:59;99267.81;;;9.54;100.00
31062;BME280;17724;53.546;9.974;2023-03-13T07:56:02;99260.03;;;9.61;100.00
31062;BME280;17724;53.546;9.974;2023-03-13T08:00:03;99264.09;;;9.69;100.00
31062;BME280;17724;53.546;9.974;2023-03-13T08:04:12;99255.53;;;9.75;100.00
31062;BME280;17724;53.546;9.974;2023-03-13T08:08:13;99238.16;;;9.80;100.00
31062;BME280;17724;53.546;9.974;2023-03-13T08:12:14;99244.13;;;9.87;100.00
31062;BME280;17724;53.546;9.974;2023-03-13T08:16:17;99252.31;;;9.92;100.00
31062;BME280;17724;53.546;9.974;2023-03-13T08:20:18;99247.22;;;10.04;100.00
31062;BME280;17724;53.546;9.974;2023-03-13T08:24:18;99237.25;;;10.14;100.00
31062;BME280;17724;53.546;9.974;2023-03-13T08:28:19;99233.00;;;10.21;100.00
31062;BME280;17724;53.546;9.974;2023-03-13T08:32:19;99230.78;;;10.23;100.00
31062;BME280;17724;53.546;9.974;2023-03-13T08:36:29;99211.47;;;10.33;100.00
31062;BME280;17724;53.546;9.974;2023-03-13T08:40:30;99220.44;;;10.39;100.00
31062;BME280;17724;53.546;9.974;2023-03-13T08:44:30;99214.06;;;10.44;100.00
31062;BME280;17724;53.546;9.974;2023-03-13T08:48:31;99214.38;;;10.42;100.00
31062;BME280;17724;53.546;9.974;2023-03-13T08:52:31;99213.97;;;10.49;100.00
31062;BME280;17724;53.546;9.974;2023-03-13T08:56:32;99195.72;;;10.58;100.00
31062;BME280;17724;53.546;9.974;2023-03-13T09:00:34;99195.13;;;10.61;100.00
31062;BME280;17724;53.546;9.974;2023-03-13T09:04:34;99194.53;;;10.64;100.00
31062;BME280;17724;53.546;9.974;2023-03-13T09:08:35;99183.66;;;10.73;100.00
31062;BME280;17724;53.546;9.974;2023-03-13T09:12:36;99190.94;;;10.82;100.00
31062;BME280;17724;53.546;9.974;2023-03-13T09:16:37;99171.94;;;10.86;100.00
31062;BME280;17724;53.546;9.974;2023-03-13T09:20:37;99187.22;;;10.92;100.00
31062;BME280;17724;53.546;9.974;2023-03-13T09:24:38;99188.25;;;10.96;100.00
31062;BME280;17724;53.546;9.974;2023-03-13T09:28:40;99171.47;;;10.98;100.00
31062;BME280;17724;53.546;9.974;2023-03-13T09:32:44;99183.50;;;11.02;100.00
31062;BME280;17724;53.546;9.974;2023-03-13T09:36:44;99188.91;;;11.07;100.00
31062;BME280;17724;53.546;9.974;2023-03-13T09:40:47;99171.69;;;11.15;100.00
31062;BME280;17724;53.546;9.974;2023-03-13T09:45:03;99182.22;;;11.13;100.00
31062;BME280;17724;53.546;9.974;2023-03-13T09:49:12;99185.78;;;11.14;100.00
31062;BME280;17724;53.546;9.974;2023-03-13T09:53:19;99195.56;;;11.20;100.00
31062;BME280;17724;53.546;9.974;2023-03-13T10:01:32;99192.63;;;11.30;100.00
31062;BME280;17724;53.546;9.974;2023-03-13T10:05:34;99191.41;;;11.36;100.00
31062;BME280;17724;53.546;9.974;2023-03-13T10:09:34;99183.97;;;11.37;100.00
31062;BME280;17724;53.546;9.974;2023-03-13T10:14:15;99184.88;;;11.32;100.00
31062;BME280;17724;53.546;9.974;2023-03-13T10:18:21;99190.50;;;11.41;100.00
31062;BME280;17724;53.546;9.974;2023-03-13T10:22:24;99207.97;;;11.50;100.00
31062;BME280;17724;53.546;9.974;2023-03-13T10:26:34;99210.09;;;11.53;100.00
31062;BME280;17724;53.546;9.974;2023-03-13T10:30:36;99195.31;;;11.49;100.00
31062;BME280;17724;53.546;9.974;2023-03-13T10:38:52;99215.69;;;11.94;100.00
31062;BME280;17724;53.546;9.974;2023-03-13T10:43:02;99203.84;;;11.94;100.00
31062;BME280;17724;53.546;9.974;2023-03-13T10:47:03;99174.03;;;11.96;100.00
31062;BME280;17724;53.546;9.974;2023-03-13T10:51:20;99200.34;;;12.16;100.00
31062;BME280;17724;53.546;9.974;2023-03-13T10:55:23;99201.66;;;12.32;100.00
31062;BME280;17724;53.546;9.974;2023-03-13T10:59:25;99193.66;;;12.44;100.00
31062;BME280;17724;53.546;9.974;2023-03-13T11:03:30;99201.94;;;12.44;100.00
31062;BME280;17724;53.546;9.974;2023-03-13T11:07:35;99211.22;;;12.48;100.00
31062;BME280;17724;53.546;9.974;2023-03-13T11:11:54;99207.66;;;12.48;100.00
31062;BME280;17724;53.546;9.974;2023-03-13T11:16:04;99204.09;;;12.47;100.00
31062;BME280;17724;53.546;9.974;2023-03-13T11:24:19;99197.00;;;12.91;100.00
31062;BME280;17724;53.546;9.974;2023-03-13T11:28:44;99180.50;;;13.22;100.00
31062;BME280;17724;53.546;9.974;2023-03-13T11:32:54;99177.38;;;13.38;100.00
31062;BME280;17724;53.546;9.974;2023-03-13T11:37:07;99175.03;;;13.53;100.00
31062;BME280;17724;53.546;9.974;2023-03-13T11:41:22;99179.25;;;13.60;100.00
31062;BME280;17724;53.546;9.974;2023-03-13T11:54:44;99151.72;;;13.77;100.00
31062;BME280;17724;53.546;9.974;2023-03-13T12:08:10;99163.97;;;13.93;100.00
31062;BME280;17724;53.546;9.974;2023-03-13T12:12:45;99118.00;;;14.15;100.00
31062;BME280;17724;53.546;9.974;2023-03-13T12:16:54;99099.63;;;14.10;100.00
31062;BME280;17724;53.546;9.974;2023-03-13T12:21:10;99130.53;;;14.38;100.00
31062;BME280;17724;53.546;9.974;2023-03-13T12:25:29;99119.47;;;14.38;100.00
31062;BME280;17724;53.546;9.974;2023-03-13T12:33:59;99130.06;;;14.45;100.00
31062;BME280;17724;53.546;9.974;2023-03-13T12:38:16;99128.94;;;14.54;100.00
31062;BME280;17724;53.546;9.974;2023-03-13T12:42:48;99115.63;;;14.57;100.00
31062;BME280;17724;53.546;9.974;2023-03-13T12:47:07;99116.09;;;14.67;99.89
31062;BME280;17724;53.546;9.974;2023-03-13T12:55:36;99108.09;;;14.83;91.89
31062;BME280;17724;53.546;9.974;2023-03-13T12:59:43;99098.00;;;14.87;88.79
31062;BME280;17724;53.546;9.974;2023-03-13T13:04:12;99109.84;;;15.05;82.25
31062;BME280;17724;53.546;9.974;2023-03-13T13:08:25;99100.44;;;14.97;79.32
31062;BME280;17724;53.546;9.974;2023-03-13T13:12:26;99116.81;;;15.20;76.70
31062;BME280;17724;53.546;9.974;2023-03-13T13:16:27;99121.69;;;15.23;78.52
31062;BME280;17724;53.546;9.974;2023-03-13T13:20:33;99070.84;;;15.27;80.51
31062;BME280;17724;53.546;9.974;2023-03-13T13:28:40;99075.25;;;15.28;79.96
31062;BME280;17724;53.546;9.974;2023-03-13T13:32:47;99082.59;;;15.24;80.45
31062;BME280;17724;53.546;9.974;2023-03-13T13:36:50;99061.09;;;15.21;81.15
31062;BME280;17724;53.546;9.974;2023-03-13T13:49:21;99026.16;;;15.38;78.10
31062;BME280;17724;53.546;9.974;2023-03-13T13:53:29;99030.84;;;15.46;77.01
31062;BME280;17724;53.546;9.974;2023-03-13T13:57:33;99039.66;;;15.48;75.60
31062;BME280;17724;53.546;9.974;2023-03-13T14:01:37;99032.63;;;15.50;75.60
31062;BME280;17724;53.546;9.974;2023-03-13T14:05:40;99019.53;;;15.60;75.99
31062;BME280;17724;53.546;9.974;2023-03-13T14:10:05;99030.13;;;15.58;74.33
31062;BME280;17724;53.546;9.974;2023-03-13T14:14:17;99033.69;;;15.67;75.42
31062;BME280;17724;53.546;9.974;2023-03-13T14:18:24;99005.53;;;15.65;74.95
31062;BME280;17724;53.546;9.974;2023-03-13T14:22:46;99010.19;;;15.73;75.90
31062;BME280;17724;53.546;9.974;2023-03-13T14:26:47;98984.91;;;15.74;74.17
31062;BME280;17724;53.546;9.974;2023-03-13T14:30:50;98995.59;;;15.85;72.75
31062;BME280;17724;53.546;9.974;2023-03-13T14:34:51;98972.13;;;15.82;70.63
31062;BME280;17724;53.546;9.974;2023-03-13T14:38:56;98986.34;;;15.81;72.94
31062;BME280;17724;53.546;9.974;2023-03-13T14:42:59;98984.16;;;15.86;72.08
31062;BME280;17724;53.546;9.974;2023-03-13T14:47:05;98973.72;;;15.92;72.48
31062;BME280;17724;53.546;9.974;2023-03-13T14:51:15;98974.16;;;15.94;71.88
31062;BME280;17724;53.546;9.974;2023-03-13T14:59:23;98957.72;;;16.10;70.39
31062;BME280;17724;53.546;9.974;2023-03-13T15:03:30;98967.03;;;16.26;70.07
31062;BME280;17724;53.546;9.974;2023-03-13T15:07:40;98971.28;;;16.23;69.84
31062;BME280;17724;53.546;9.974;2023-03-13T15:12:03;98972.56;;;16.26;68.47
31062;BME280;17724;53.546;9.974;2023-03-13T15:16:16;98930.69;;;16.40;67.88
31062;BME280;17724;53.546;9.974;2023-03-13T15:20:17;98943.00;;;16.30;67.98
31062;BME280;17724;53.546;9.974;2023-03-13T15:24:18;98929.50;;;16.29;69.40
31062;BME280;17724;53.546;9.974;2023-03-13T15:28:22;98948.13;;;16.40;68.11
31062;BME280;17724;53.546;9.974;2023-03-13T15:32:28;98957.22;;;16.29;68.29
31062;BME280;17724;53.546;9.974;2023-03-13T15:36:30;98933.88;;;16.30;68.74
31062;BME280;17724;53.546;9.974;2023-03-13T15:40:31;98944.50;;;16.27;68.92
31062;BME280;17724;53.546;9.974;2023-03-13T15:44:32;98921.50;;;16.27;68.60
31062;BME280;17724;53.546;9.974;2023-03-13T15:48:33;98925.56;;;16.30;69.24
31062;BME280;17724;53.546;9.974;2023-03-13T15:52:34;98906.13;;;16.30;69.20
31062;BME280;17724;53.546;9.974;2023-03-13T15:56:35;98908.59;;;16.43;69.45
31062;BME280;17724;53.546;9.974;2023-03-13T16:00:37;98898.78;;;16.46;69.14
31062;BME280;17724;53.546;9.974;2023-03-13T16:04:37;98893.63;;;16.23;69.30
31062;BME280;17724;53.546;9.974;2023-03-13T16:08:39;98902.97;;;16.19;68.84
31062;BME280;17724;53.546;9.974;2023-03-13T16:12:39;98899.75;;;16.17;69.41
31062;BME280;17724;53.546;9.974;2023-03-13T16:16:40;98881.38;;;16.12;69.67
31062;BME280;17724;53.546;9.974;2023-03-13T16:20:40;98881.13;;;16.05;68.51
31062;BME280;17724;53.546;9.974;2023-03-13T16:24:40;98882.81;;;15.97;69.17
31062;BME280;17724;53.546;9.974;2023-03-13T16:28:41;98875.97;;;15.95;68.06
31062;BME280;17724;53.546;9.974;2023-03-13T16:32:42;98871.94;;;15.92;67.63
31062;BME280;17724;53.546;9.974;2023-03-13T16:36:43;98875.13;;;15.82;68.53
31062;BME280;17724;53.546;9.974;2023-03-13T16:40:44;98875.47;;;15.81;68.73
31062;BME280;17724;53.546;9.974;2023-03-13T16:44:44;98878.56;;;15.79;68.93
31062;BME280;17724;53.546;9.974;2023-03-13T16:48:45;98881.78;;;15.69;68.75
31062;BME280;17724;53.546;9.974;2023-03-13T16:52:46;98873.63;;;15.64;68.21
31062;BME280;17724;53.546;9.974;2023-03-13T16:56:47;98873.84;;;15.59;68.24
31062;BME280;17724;53.546;9.974;2023-03-13T17:00:48;98866.81;;;15.61;68.67
31062;BME280;17724;53.546;9.974;2023-03-13T17:04:48;98877.53;;;15.63;68.90
31062;BME280;17724;53.546;9.974;2023-03-13T17:08:49;98859.94;;;15.67;70.84
31062;BME280;17724;53.546;9.974;2023-03-13T17:12:49;98864.03;;;15.61;69.14
31062;BME280;17724;53.546;9.974;2023-03-13T17:16:50;98862.75;;;15.59;68.90
31062;BME280;17724;53.546;9.974;2023-03-13T17:20:50;98876.16;;;15.57;69.60
31062;BME280;17724;53.546;9.974;2023-03-13T17:24:51;98868.28;;;15.59;70.53
31062;BME280;17724;53.546;9.974;2023-03-13T17:28:54;98868.28;;;15.59;71.45
31062;BME280;17724;53.546;9.974;2023-03-13T17:32:56;98870.59;;;15.57;71.84
31062;BME280;17724;53.546;9.974;2023-03-13T17:36:58;98876.53;;;15.46;72.73
31062;BME280;17724;53.546;9.974;2023-03-13T17:41:00;98879.38;;;15.38;73.42
31062;BME280;17724;53.546;9.974;2023-03-13T17:45:01;98870.25;;;15.37;74.24
31062;BME280;17724;53.546;9.974;2023-03-13T17:49:04;98872.41;;;15.32;72.93
31062;BME280;17724;53.546;9.974;2023-03-13T17:53:07;98873.41;;;15.27;73.44
31062;BME280;17724;53.546;9.974;2023-03-13T17:57:14;98885.00;;;15.29;72.57
31062;BME280;17724;53.546;9.974;2023-03-13T18:01:16;98885.91;;;15.12;71.03
31062;BME280;17724;53.546;9.974;2023-03-13T18:05:17;98886.53;;;15.18;71.89
31062;BME280;17724;53.546;9.974;2023-03-13T18:09:20;98882.19;;;15.08;69.75
31062;BME280;17724;53.546;9.974;2023-03-13T18:13:20;98889.06;;;15.02;68.84
31062;BME280;17724;53.546;9.974;2023-03-13T18:17:22;98901.34;;;14.92;69.07
31062;BME280;17724;53.546;9.974;2023-03-13T18:21:23;98895.09;;;14.95;68.68
31062;BME280;17724;53.546;9.974;2023-03-13T18:25:24;98907.09;;;14.78;66.46
31062;BME280;17724;53.546;9.974;2023-03-13T18:29:25;98902.44;;;14.62;65.65
31062;BME280;17724;53.546;9.974;2023-03-13T18:33:25;98901.66;;;14.52;64.65
31062;BME280;17724;53.546;9.974;2023-03-13T18:37:28;98915.63;;;14.47;63.47
31062;BME280;17724;53.546;9.974;2023-03-13T18:41:32;98914.03;;;14.38;63.26
31062;BME280;17724;53.546;9.974;2023-03-13T18:45:33;98922.97;;;14.43;63.25
31062;BME280;17724;53.546;9.974;2023-03-13T18:49:35;98912.88;;;14.39;64.58
31062;BME280;17724;53.546;9.974;2023-03-13T18:53:35;98920.22;;;14.35;62.81
31062;BME280;17724;53.546;9.974;2023-03-13T18:57:36;98927.56;;;14.30;63.05
31062;BME280;17724;53.546;9.974;2023-03-13T19:01:37;98937.31;;;14.19;62.15
31062;BME280;17724;53.546;9.974;2023-03-13T19:05:37;98941.25;;;14.18;63.39
31062;BME280;17724;53.546;9.974;2023-03-13T19:09:38;98932.59;;;14.20;62.78
31062;BME280;17724;53.546;9.974;2023-03-13T19:13:38;98939.28;;;14.10;61.71
31062;BME280;17724;53.546;9.974;2023-03-13T19:17:39;98952.97;;;13.89;61.95
31062;BME280;17724;53.546;9.974;2023-03-13T19:21:40;98957.38;;;13.73;63.42
31062;BME280;17724;53.546;9.974;2023-03-13T19:25:40;98942.75;;;13.72;65.05
31062;BME280;17724;53.546;9.974;2023-03-13T19:29:41;98954.09;;;13.79;65.05
31062;BME280;17724;53.546;9.974;2023-03-13T19:33:42;98942.56;;;13.86;65.73
31062;BME280;17724;53.546;9.974;2023-03-13T19:37:43;98942.25;;;13.70;64.45
31062;BME280;17724;53.546;9.974;2023-03-13T19:41:43;98947.47;;;13.80;69.25
31062;BME280;17724;53.546;9.974;2023-03-13T19:45:45;98944.34;;;13.91;67.60
31062;BME280;17724;53.546;9.974;2023-03-13T19:49:47;98960.75;;;13.70;66.60
31062;BME280;17724;53.546;9.974;2023-03-13T19:53:53;98930.22;;;13.49;69.21
31062;BME280;17724;53.546;9.974;2023-03-13T19:57:54;98927.28;;;13.71;69.41
31062;BME280;17724;53.546;9.974;2023-03-13T20:01:55;98926.63;;;13.83;73.02
31062;BME280;17724;53.546;9.974;2023-03-13T20:05:55;98934.41;;;14.07;71.06
31062;BME280;17724;53.546;9.974;2023-03-13T20:09:56;98916.72;;;13.91;68.96
31062;BME280;17724;53.546;9.974;2023-03-13T20:13:57;98906.16;;;13.84;69.51
31062;BME280;17724;53.546;9.974;2023-03-13T20:17:57;98901.59;;;14.05;71.35
31062;BME280;17724;53.546;9.974;2023-03-13T20:21:58;98888.09;;;14.04;71.72
31062;BME280;17724;53.546;9.974;2023-03-13T20:26:05;98897.19;;;13.96;72.23
31062;BME280;17724;53.546;9.974;2023-03-13T20:30:09;98920.44;;;13.95;72.31
31062;BME280;17724;53.546;9.974;2023-03-13T20:34:09;98905.03;;;13.85;71.63
31062;BME280;17724;53.546;9.974;2023-03-13T20:38:10;98909.88;;;13.79;72.02
31062;BME280;17724;53.546;9.974;2023-03-13T20:42:11;98906.34;;;13.70;71.26
31062;BME280;17724;53.546;9.974;2023-03-13T20:46:11;98914.44;;;13.67;71.12
31062;BME280;17724;53.546;9.974;2023-03-13T20:50:12;98896.91;;;13.54;72.61
31062;BME280;17724;53.546;9.974;2023-03-13T20:54:12;98883.56;;;13.56;73.38
31062;BME280;17724;53.546;9.974;2023-03-13T20:58:14;98880.31;;;13.71;73.23
31062;BME280;17724;53.546;9.974;2023-03-13T21:02:14;98893.66;;;13.69;71.52
31062;BME280;17724;53.546;9.974;2023-03-13T21:06:16;98890.25;;;13.64;72.39
31062;BME280;17724;53.546;9.974;2023-03-13T21:10:17;98871.06;;;13.59;73.13
31062;BME280;17724;53.546;9.974;2023-03-13T21:14:18;98863.25;;;13.52;71.77
31062;BME280;17724;53.546;9.974;2023-03-13T21:18:19;98859.38;;;13.44;72.67
31062;BME280;17724;53.546;9.974;2023-03-13T21:22:20;98872.88;;;13.54;74.13
31062;BME280;17724;53.546;9.974;2023-03-13T21:26:22;98874.81;;;13.45;73.45
31062;BME280;17724;53.546;9.974;2023-03-13T21:30:23;98878.88;;;13.39;75.26
31062;BME280;17724;53.546;9.974;2023-03-13T21:34:24;98877.88;;;13.35;75.64
31062;BME280;17724;53.546;9.974;2023-03-13T21:38:24;98880.78;;;13.21;76.88
31062;BME280;17724;53.546;9.974;2023-03-13T21:42:25;98877.72;;;13.31;78.14
31062;BME280;17724;53.546;9.974;2023-03-13T21:46:26;98899.31;;;13.29;79.96
31062;BME280;17724;53.546;9.974;2023-03-13T21:50:32;98895.19;;;13.10;79.78
31062;BME280;17724;53.546;9.974;2023-03-13T21:54:32;98895.34;;;13.04;80.74
31062;BME280;17724;53.546;9.974;2023-03-13T21:58:33;98889.97;;;12.99;81.79
31062;BME280;17724;53.546;9.974;2023-03-13T22:02:34;98889.19;;;13.07;82.00
31062;BME280;17724;53.546;9.974;2023-03-13T22:06:35;98890.41;;;12.84;84.45
31062;BME280;17724;53.546;9.974;2023-03-13T22:10:37;98875.63;;;12.80;85.58
31062;BME280;17724;53.546;9.974;2023-03-13T22:14:38;98869.84;;;12.90;85.53
31062;BME280;17724;53.546;9.974;2023-03-13T22:18:39;98862.53;;;12.86;85.63
31062;BME280;17724;53.546;9.974;2023-03-13T22:22:41;98853.28;;;12.81;86.28
31062;BME280;17724;53.546;9.974;2023-03-13T22:26:41;98849.53;;;12.77;86.78
31062;BME280;17724;53.546;9.974;2023-03-13T22:30:42;98847.59;;;12.87;87.03